createdAt,value
2023-01-15T00:00:00.627Z,7.05
2023-01-15T00:01:03.531Z,7.17
2023-01-15T00:02:05.710Z,7.17
2023-01-15T00:03:07.138Z,7.19
2023-01-15T00:04:09.184Z,7.18
2023-01-15T00:05:10.540Z,7.17
2023-01-15T00:06:11.967Z,7.20
2023-01-15T00:07:13.396Z,7.19
2023-01-15T00:08:14.967Z,7.19
2023-01-15T00:09:16.545Z,7.18
2023-01-15T00:10:18.080Z,7.16
2023-01-15T00:11:20.335Z,7.30
2023-01-15T00:12:21.761Z,7.28
2023-01-15T00:13:23.192Z,7.28
2023-01-15T00:14:24.620Z,7.24
2023-01-15T00:15:26.130Z,7.25
2023-01-15T00:16:28.033Z,7.23
2023-01-15T00:17:29.467Z,7.22
2023-01-15T00:18:30.926Z,7.21
2023-01-15T00:19:32.329Z,7.14
2023-01-15T00:20:33.749Z,7.27
2023-01-15T00:21:35.198Z,7.28
2023-01-15T00:22:36.640Z,7.34
2023-01-15T00:23:56.988Z,7.28
2023-01-15T00:25:16.807Z,7.32
2023-01-15T00:26:39.308Z,7.42
2023-01-15T00:27:40.805Z,7.35
2023-01-15T00:28:42.727Z,7.37
2023-01-15T00:29:44.201Z,7.27
2023-01-15T00:30:45.656Z,7.36
2023-01-15T00:31:55.314Z,7.35
2023-01-15T00:32:58.753Z,7.37
2023-01-15T00:34:00.200Z,7.37
2023-01-15T00:35:01.654Z,7.28
2023-01-15T00:36:03.113Z,7.29
2023-01-15T00:37:04.903Z,7.33
2023-01-15T00:38:06.310Z,7.31
2023-01-15T00:39:07.715Z,7.33
2023-01-15T00:40:10.236Z,7.27
2023-01-15T00:41:11.702Z,7.31
2023-01-15T00:42:13.464Z,7.29
2023-01-15T00:43:14.889Z,7.45
2023-01-15T00:44:17.021Z,7.33
2023-01-15T00:45:18.439Z,7.36
2023-01-15T00:46:20.458Z,7.35
2023-01-15T00:47:21.935Z,7.35
2023-01-15T00:48:23.421Z,7.48
2023-01-15T00:49:24.841Z,7.47
2023-01-15T00:50:26.255Z,7.38
2023-01-15T00:51:31.105Z,7.42
2023-01-15T00:52:32.670Z,7.45
2023-01-15T00:53:34.054Z,7.39
2023-01-15T00:54:35.561Z,7.49
2023-01-15T00:55:36.983Z,7.54
2023-01-15T00:56:38.442Z,7.56
2023-01-15T00:57:39.883Z,7.55
2023-01-15T00:58:41.399Z,7.54
2023-01-15T00:59:42.814Z,7.59
2023-01-15T01:00:44.287Z,7.51
2023-01-15T01:01:45.823Z,7.58
2023-01-15T01:02:47.284Z,7.56
2023-01-15T01:03:50.158Z,7.62
2023-01-15T01:04:51.608Z,7.76
2023-01-15T01:05:53.029Z,7.75
2023-01-15T01:06:54.538Z,7.73
2023-01-15T01:07:55.956Z,7.70
2023-01-15T01:08:57.472Z,7.65
2023-01-15T01:09:58.944Z,7.57
2023-01-15T01:11:03.382Z,7.59
2023-01-15T01:12:05.779Z,7.68
2023-01-15T01:13:07.193Z,7.77
2023-01-15T01:14:10.923Z,7.74
2023-01-15T01:15:12.412Z,7.67
2023-01-15T01:16:33.473Z,7.74
2023-01-15T01:17:37.160Z,7.74
2023-01-15T01:18:38.564Z,7.73
2023-01-15T01:19:40.013Z,7.71
2023-01-15T01:20:41.428Z,7.74
2023-01-15T01:21:43.955Z,7.73
2023-01-15T01:22:48.573Z,7.74
2023-01-15T01:23:50.126Z,7.75
2023-01-15T01:24:51.554Z,7.76
2023-01-15T01:25:52.960Z,7.72
2023-01-15T01:26:54.913Z,7.84
2023-01-15T01:27:56.270Z,7.81
2023-01-15T01:28:58.550Z,7.74
2023-01-15T01:29:59.989Z,7.72
2023-01-15T01:31:05.318Z,7.75
2023-01-15T01:32:06.803Z,7.79
2023-01-15T01:33:08.459Z,7.83
2023-01-15T01:34:11.161Z,8.04
2023-01-15T01:35:12.589Z,7.93
2023-01-15T01:36:14.021Z,7.93
2023-01-15T01:37:16.360Z,7.95
2023-01-15T01:38:17.844Z,7.88
2023-01-15T01:39:19.653Z,7.94
2023-01-15T01:40:21.181Z,7.91
2023-01-15T01:41:22.987Z,7.92
2023-01-15T01:42:25.845Z,7.86
2023-01-15T01:43:29.598Z,8.00
2023-01-15T01:44:33.943Z,7.97
2023-01-15T01:45:35.423Z,7.94
2023-01-15T01:46:36.911Z,7.92
2023-01-15T01:47:38.706Z,7.86
2023-01-15T01:48:40.196Z,7.86
2023-01-15T01:49:44.909Z,7.81
2023-01-15T01:50:48.671Z,7.80
2023-01-15T01:51:56.845Z,7.85
2023-01-15T01:53:02.480Z,7.80
2023-01-15T01:54:04.664Z,7.97
2023-01-15T01:55:07.623Z,7.96
2023-01-15T01:56:11.557Z,7.88
2023-01-15T01:57:15.706Z,7.86
2023-01-15T01:58:20.132Z,7.86
2023-01-15T01:59:24.140Z,7.93
2023-01-15T02:00:25.850Z,7.87
2023-01-15T02:01:27.387Z,7.88
2023-01-15T02:02:29.193Z,7.85
2023-01-15T02:03:35.420Z,7.82
2023-01-15T02:04:37.633Z,7.74
2023-01-15T02:05:43.705Z,7.74
2023-01-15T02:06:45.375Z,7.71
2023-01-15T02:07:46.788Z,7.77
2023-01-15T02:08:48.243Z,7.77
2023-01-15T02:09:49.647Z,7.84
2023-01-15T02:10:56.121Z,7.82
2023-01-15T02:12:09.033Z,7.79
2023-01-15T02:13:19.479Z,7.78
2023-01-15T02:14:29.942Z,7.76
2023-01-15T02:15:41.965Z,7.71
2023-01-15T02:16:50.522Z,7.72
2023-01-15T02:18:20.977Z,7.70
2023-01-15T02:20:05.640Z,7.66
2023-01-15T02:21:19.329Z,7.63
2023-01-15T02:22:45.231Z,7.56
2023-01-15T02:23:55.703Z,7.59
2023-01-15T02:25:08.122Z,7.63
2023-01-15T02:26:40.429Z,7.60
2023-01-15T02:27:55.394Z,7.58
2023-01-15T02:28:59.263Z,7.53
2023-01-15T02:30:24.664Z,7.55
2023-01-15T02:31:52.812Z,7.50
2023-01-15T02:32:59.362Z,7.54
2023-01-15T02:34:07.890Z,7.46
2023-01-15T02:35:22.973Z,7.50
2023-01-15T02:36:28.996Z,7.48
2023-01-15T02:37:33.988Z,7.44
2023-01-15T02:38:41.463Z,7.52
2023-01-15T02:39:47.409Z,7.53
2023-01-15T02:40:53.937Z,7.46
2023-01-15T02:41:57.089Z,7.46
2023-01-15T02:42:59.278Z,7.45
2023-01-15T02:44:02.834Z,7.49
2023-01-15T02:45:08.553Z,7.51
2023-01-15T02:46:12.024Z,7.44
2023-01-15T02:47:15.325Z,7.48
2023-01-15T02:48:20.416Z,7.44
2023-01-15T02:49:22.710Z,7.40
2023-01-15T02:50:35.649Z,7.40
2023-01-15T02:51:52.203Z,7.36
2023-01-15T02:52:59.580Z,7.42
2023-01-15T02:54:06.400Z,7.46
2023-01-15T02:55:20.321Z,7.37
2023-01-15T02:56:25.715Z,7.38
2023-01-15T02:57:30.522Z,7.35
2023-01-15T02:58:37.605Z,7.39
2023-01-15T02:59:44.041Z,7.47
2023-01-15T03:00:49.409Z,7.40
2023-01-15T03:01:58.566Z,7.42
2023-01-15T03:03:11.307Z,7.41
2023-01-15T03:04:23.141Z,7.42
2023-01-15T03:05:35.679Z,7.38
2023-01-15T03:06:50.299Z,7.38
2023-01-15T03:07:55.884Z,7.45
2023-01-15T03:08:57.382Z,7.43
2023-01-15T03:09:59.225Z,7.36
2023-01-15T03:11:09.436Z,7.38
2023-01-15T03:12:22.258Z,7.45
2023-01-15T03:13:43.319Z,7.42
2023-01-15T03:14:56.812Z,7.36
2023-01-15T03:16:26.351Z,7.42
2023-01-15T03:17:38.397Z,7.49
2023-01-15T03:18:53.372Z,7.51
2023-01-15T03:20:02.445Z,7.45
2023-01-15T03:21:08.069Z,7.40
2023-01-15T03:22:21.633Z,7.44
2023-01-15T03:23:25.237Z,7.47
2023-01-15T03:24:47.642Z,7.49
2023-01-15T03:25:50.576Z,7.55
2023-01-15T03:26:53.639Z,7.56
2023-01-15T03:27:59.697Z,7.52
2023-01-15T03:29:03.538Z,7.48
2023-01-15T03:30:17.287Z,7.51
2023-01-15T03:31:18.831Z,7.46
2023-01-15T03:32:22.551Z,7.45
2023-01-15T03:33:24.094Z,7.47
2023-01-15T03:34:31.294Z,7.47
2023-01-15T03:36:11.264Z,7.44
2023-01-15T03:37:13.865Z,7.47
2023-01-15T03:38:22.309Z,7.46
2023-01-15T03:39:23.755Z,7.50
2023-01-15T03:40:25.381Z,7.52
2023-01-15T03:41:55.837Z,7.52
2023-01-15T03:43:23.423Z,7.51
2023-01-15T03:44:40.617Z,7.51
2023-01-15T03:45:43.771Z,7.53
2023-01-15T03:47:04.467Z,7.49
2023-01-15T03:48:20.691Z,7.46
2023-01-15T03:49:51.404Z,7.45
2023-01-15T03:51:18.403Z,7.49
2023-01-15T03:52:31.485Z,7.50
2023-01-15T03:53:41.966Z,7.49
2023-01-15T03:55:04.744Z,7.51
2023-01-15T03:56:29.846Z,7.52
2023-01-15T03:57:53.348Z,7.50
2023-01-15T03:59:03.573Z,7.43
2023-01-15T04:00:15.672Z,7.50
2023-01-15T04:01:22.741Z,7.52
2023-01-15T04:02:26.612Z,7.48
2023-01-15T04:03:30.271Z,7.48
2023-01-15T04:04:33.078Z,7.47
2023-01-15T04:05:36.953Z,7.50
2023-01-15T04:06:41.973Z,7.53
2023-01-15T04:07:44.705Z,7.54
2023-01-15T04:08:47.777Z,7.62
2023-01-15T04:09:49.317Z,7.54
2023-01-15T04:10:58.879Z,7.51
2023-01-15T04:12:01.304Z,7.54
2023-01-15T04:13:02.822Z,7.54
2023-01-15T04:14:04.563Z,7.49
2023-01-15T04:15:06.587Z,7.55
2023-01-15T04:16:08.559Z,7.48
2023-01-15T04:17:10.584Z,7.54
2023-01-15T04:18:12.014Z,7.48
2023-01-15T04:19:13.593Z,7.52
2023-01-15T04:20:15.269Z,7.38
2023-01-15T04:21:16.700Z,7.62
2023-01-15T04:22:18.137Z,7.48
2023-01-15T04:23:19.590Z,7.31
2023-01-15T04:24:21.124Z,7.28
2023-01-15T04:25:22.557Z,7.22
2023-01-15T04:26:24.050Z,7.18
2023-01-15T04:27:27.209Z,7.12
2023-01-15T04:28:28.612Z,7.13
2023-01-15T04:29:30.043Z,7.00
2023-01-15T04:30:31.455Z,6.76
2023-01-15T04:31:33.464Z,6.53
2023-01-15T04:32:34.762Z,6.41
2023-01-15T04:33:36.707Z,6.07
2023-01-15T04:34:38.183Z,6.14
2023-01-15T04:35:39.673Z,6.06
2023-01-15T04:36:42.545Z,6.01
2023-01-15T04:37:43.992Z,5.95
2023-01-15T04:38:45.443Z,5.82
2023-01-15T04:39:47.034Z,5.76
2023-01-15T04:41:06.983Z,5.71
2023-01-15T04:42:31.799Z,5.63
2023-01-15T04:43:51.666Z,5.58
2023-01-15T04:44:53.072Z,5.56
2023-01-15T04:45:54.547Z,5.50
2023-01-15T04:46:57.529Z,5.51
2023-01-15T04:47:58.977Z,5.40
2023-01-15T04:49:00.412Z,5.38
2023-01-15T04:50:01.907Z,5.37
2023-01-15T04:51:04.601Z,5.33
2023-01-15T04:52:06.501Z,5.30
2023-01-15T04:53:07.927Z,5.27
2023-01-15T04:54:11.277Z,5.24
2023-01-15T04:55:12.894Z,5.23
2023-01-15T04:56:14.290Z,5.19
2023-01-15T04:57:15.713Z,5.10
2023-01-15T04:58:17.109Z,5.09
2023-01-15T04:59:21.069Z,5.02
2023-01-15T05:00:23.157Z,4.99
2023-01-15T05:01:24.628Z,4.96
2023-01-15T05:02:26.162Z,4.92
2023-01-15T05:03:31.244Z,4.88
2023-01-15T05:04:33.381Z,4.83
2023-01-15T05:05:34.810Z,4.84
2023-01-15T05:06:36.633Z,4.76
2023-01-15T05:07:38.065Z,4.78
2023-01-15T05:08:39.787Z,4.76
2023-01-15T05:09:41.210Z,4.76
2023-01-15T05:10:42.598Z,4.70
2023-01-15T05:11:44.055Z,4.69
2023-01-15T05:12:45.457Z,4.67
2023-01-15T05:13:46.864Z,4.68
2023-01-15T05:14:48.445Z,4.64
2023-01-15T05:15:49.873Z,4.62
2023-01-15T05:16:51.366Z,4.69
2023-01-15T05:17:52.755Z,4.63
2023-01-15T05:18:57.924Z,4.64
2023-01-15T05:19:59.334Z,4.60
2023-01-15T05:21:00.786Z,4.58
2023-01-15T05:22:02.202Z,4.61
2023-01-15T05:23:03.591Z,4.61
2023-01-15T05:24:08.613Z,4.55
2023-01-15T05:25:10.104Z,4.56
2023-01-15T05:26:11.744Z,4.52
2023-01-15T05:27:13.178Z,4.57
2023-01-15T05:28:14.561Z,4.55
2023-01-15T05:29:15.993Z,4.50
2023-01-15T05:30:17.792Z,4.54
2023-01-15T05:31:19.636Z,4.49
2023-01-15T05:32:21.110Z,4.44
2023-01-15T05:33:22.527Z,4.49
2023-01-15T05:34:23.941Z,4.54
2023-01-15T05:35:25.337Z,4.53
2023-01-15T05:36:30.325Z,4.53
2023-01-15T05:37:31.777Z,4.49
2023-01-15T05:38:33.847Z,4.51
2023-01-15T05:39:35.237Z,4.52
2023-01-15T05:40:36.678Z,4.50
2023-01-15T05:41:50.243Z,4.45
2023-01-15T05:42:51.791Z,4.50
2023-01-15T05:43:53.359Z,4.51
2023-01-15T05:44:54.852Z,4.50
2023-01-15T05:45:56.298Z,4.49
2023-01-15T05:47:00.239Z,4.49
2023-01-15T05:48:01.694Z,4.48
2023-01-15T05:49:07.001Z,4.49
2023-01-15T05:50:09.320Z,4.47
2023-01-15T05:51:10.723Z,4.44
2023-01-15T05:52:12.257Z,4.41
2023-01-15T05:53:13.648Z,4.40
2023-01-15T05:54:17.710Z,4.36
2023-01-15T05:55:19.182Z,4.43
2023-01-15T05:56:20.662Z,4.43
2023-01-15T05:57:22.075Z,4.47
2023-01-15T05:58:23.488Z,4.50
2023-01-15T05:59:27.336Z,4.49
2023-01-15T06:00:30.442Z,4.40
2023-01-15T06:01:35.753Z,4.49
2023-01-15T06:02:37.207Z,4.47
2023-01-15T06:03:38.724Z,4.46
2023-01-15T06:04:40.179Z,4.49
2023-01-15T06:05:41.654Z,4.44
2023-01-15T06:06:43.689Z,4.45
2023-01-15T06:07:44.977Z,4.50
2023-01-15T06:08:46.876Z,4.49
2023-01-15T06:09:48.264Z,4.44
2023-01-15T06:10:50.535Z,4.43
2023-01-15T06:11:53.597Z,4.45
2023-01-15T06:12:55.048Z,4.38
2023-01-15T06:13:56.537Z,4.41
2023-01-15T06:14:57.946Z,4.39
2023-01-15T06:16:00.226Z,4.40
2023-01-15T06:17:01.848Z,4.35
2023-01-15T06:18:03.440Z,4.33
2023-01-15T06:19:06.651Z,4.28
2023-01-15T06:20:08.879Z,4.29
2023-01-15T06:21:12.376Z,4.20
2023-01-15T06:22:13.748Z,4.28
2023-01-15T06:23:17.934Z,4.24
2023-01-15T06:24:20.624Z,4.29
2023-01-15T06:25:22.291Z,4.31
2023-01-15T06:26:24.119Z,4.34
2023-01-15T06:27:25.520Z,4.36
2023-01-15T06:28:27.392Z,4.36
2023-01-15T06:29:28.831Z,4.33
2023-01-15T06:30:30.430Z,4.33
2023-01-15T06:31:32.514Z,4.32
2023-01-15T06:32:33.973Z,4.29
2023-01-15T06:33:36.187Z,4.26
2023-01-15T06:34:37.658Z,4.30
2023-01-15T06:35:39.089Z,4.31
2023-01-15T06:36:40.533Z,4.31
2023-01-15T06:37:41.959Z,4.29
2023-01-15T06:38:44.761Z,4.32
2023-01-15T06:39:46.158Z,4.31
2023-01-15T06:40:47.652Z,4.28
2023-01-15T06:42:07.474Z,4.41
2023-01-15T06:43:29.222Z,4.42
2023-01-15T06:44:49.085Z,4.40
2023-01-15T06:46:25.846Z,4.40
2023-01-15T06:47:27.357Z,4.34
2023-01-15T06:48:28.795Z,4.30
2023-01-15T06:49:31.251Z,4.32
2023-01-15T06:50:32.705Z,4.35
2023-01-15T06:51:34.167Z,4.34
2023-01-15T06:52:35.631Z,4.33
2023-01-15T06:53:37.058Z,4.29
2023-01-15T06:54:38.534Z,4.31
2023-01-15T06:55:39.948Z,4.28
2023-01-15T06:56:41.385Z,4.27
2023-01-15T06:57:42.848Z,4.24
2023-01-15T06:58:44.459Z,4.23
2023-01-15T06:59:46.402Z,4.22
2023-01-15T07:00:55.934Z,4.20
2023-01-15T07:01:57.664Z,4.14
2023-01-15T07:03:02.791Z,4.24
2023-01-15T07:04:04.572Z,4.22
2023-01-15T07:05:06.269Z,4.23
2023-01-15T07:06:09.239Z,4.21
2023-01-15T07:07:10.638Z,4.25
2023-01-15T07:08:12.087Z,4.27
2023-01-15T07:09:13.599Z,4.31
2023-01-15T07:10:14.992Z,4.28
2023-01-15T07:11:17.655Z,4.27
2023-01-15T07:12:19.505Z,4.26
2023-01-15T07:13:20.955Z,4.21
2023-01-15T07:14:25.292Z,4.26
2023-01-15T07:15:26.781Z,4.29
2023-01-15T07:16:28.242Z,4.29
2023-01-15T07:17:29.789Z,4.28
2023-01-15T07:18:33.278Z,4.31
2023-01-15T07:19:34.678Z,4.29
2023-01-15T07:20:36.140Z,4.30
2023-01-15T07:21:37.618Z,4.29
2023-01-15T07:22:39.035Z,4.25
2023-01-15T07:23:40.448Z,4.20
2023-01-15T07:24:41.893Z,4.21
2023-01-15T07:25:43.335Z,4.22
2023-01-15T07:26:45.524Z,4.23
2023-01-15T07:27:48.270Z,4.19
2023-01-15T07:28:50.159Z,4.23
2023-01-15T07:29:52.315Z,4.21
2023-01-15T07:30:58.531Z,4.19
2023-01-15T07:32:00.195Z,4.21
2023-01-15T07:33:01.607Z,4.21
2023-01-15T07:34:03.336Z,4.28
2023-01-15T07:35:05.151Z,4.30
2023-01-15T07:36:06.838Z,4.25
2023-01-15T07:37:08.244Z,4.21
2023-01-15T07:38:09.694Z,4.21
2023-01-15T07:39:11.958Z,4.24
2023-01-15T07:40:13.429Z,4.18
2023-01-15T07:41:33.644Z,4.21
2023-01-15T07:42:53.411Z,4.19
2023-01-15T07:44:13.139Z,4.19
2023-01-15T07:45:32.858Z,4.18
2023-01-15T07:46:52.666Z,4.19
2023-01-15T07:48:13.111Z,4.19
2023-01-15T07:49:34.144Z,4.19
2023-01-15T07:50:36.723Z,4.16
2023-01-15T07:51:38.140Z,4.19
2023-01-15T07:52:39.587Z,4.18
2023-01-15T07:53:41.005Z,4.24
2023-01-15T07:54:42.897Z,4.17
2023-01-15T07:55:44.333Z,4.22
2023-01-15T07:56:45.876Z,4.24
2023-01-15T07:57:47.314Z,4.20
2023-01-15T07:58:50.138Z,4.21
2023-01-15T07:59:51.698Z,4.20
2023-01-15T08:00:53.435Z,4.17
2023-01-15T08:01:55.051Z,4.18
2023-01-15T08:02:56.513Z,4.20
2023-01-15T08:03:57.948Z,4.21
2023-01-15T08:04:59.371Z,4.23
2023-01-15T08:06:00.859Z,4.22
2023-01-15T08:07:03.809Z,4.26
2023-01-15T08:08:05.441Z,4.26
2023-01-15T08:09:06.861Z,4.29
2023-01-15T08:10:10.639Z,4.33
2023-01-15T08:11:30.606Z,4.28
2023-01-15T08:12:50.260Z,4.29
2023-01-15T08:14:23.792Z,4.25
2023-01-15T08:15:25.782Z,4.26
2023-01-15T08:16:27.225Z,4.33
2023-01-15T08:17:28.672Z,4.32
2023-01-15T08:18:30.141Z,4.32
2023-01-15T08:19:31.664Z,4.31
2023-01-15T08:20:34.589Z,4.37
2023-01-15T08:21:36.003Z,4.34
2023-01-15T08:22:38.571Z,4.32
2023-01-15T08:23:40.050Z,4.32
2023-01-15T08:24:41.472Z,4.33
2023-01-15T08:25:42.894Z,4.36
2023-01-15T08:26:44.314Z,4.35
2023-01-15T08:27:46.251Z,4.35
2023-01-15T08:28:47.623Z,4.29
2023-01-15T08:29:49.143Z,4.32
2023-01-15T08:30:50.572Z,4.27
2023-01-15T08:31:52.048Z,4.31
2023-01-15T08:32:59.269Z,4.34
2023-01-15T08:34:00.670Z,4.32
2023-01-15T08:35:02.155Z,4.32
2023-01-15T08:36:04.000Z,4.26
2023-01-15T08:37:05.478Z,4.30
2023-01-15T08:38:07.763Z,4.32
2023-01-15T08:39:10.393Z,4.36
2023-01-15T08:40:14.580Z,4.37
2023-01-15T08:41:16.221Z,4.40
2023-01-15T08:42:17.628Z,4.36
2023-01-15T08:43:19.051Z,4.40
2023-01-15T08:44:21.541Z,4.42
2023-01-15T08:45:22.994Z,4.44
2023-01-15T08:46:24.394Z,4.42
2023-01-15T08:47:25.791Z,4.51
2023-01-15T08:48:28.875Z,4.55
2023-01-15T08:49:30.402Z,4.56
2023-01-15T08:50:31.855Z,4.58
2023-01-15T08:51:33.314Z,4.61
2023-01-15T08:52:34.802Z,4.64
2023-01-15T08:53:38.379Z,4.62
2023-01-15T08:54:42.031Z,4.60
2023-01-15T08:55:43.627Z,4.60
2023-01-15T08:56:45.862Z,4.62
2023-01-15T08:57:47.632Z,4.63
2023-01-15T08:58:51.747Z,4.70
2023-01-15T08:59:53.179Z,4.72
2023-01-15T09:00:54.628Z,4.70
2023-01-15T09:01:56.204Z,4.68
2023-01-15T09:02:58.018Z,4.74
2023-01-15T09:03:59.763Z,4.73
2023-01-15T09:05:01.255Z,4.78
2023-01-15T09:06:03.223Z,4.75
2023-01-15T09:07:04.686Z,4.68
2023-01-15T09:08:07.300Z,4.76
2023-01-15T09:09:09.580Z,4.76
2023-01-15T09:10:11.171Z,4.73
2023-01-15T09:11:13.808Z,4.67
2023-01-15T09:12:15.578Z,4.80
2023-01-15T09:13:17.239Z,4.79
2023-01-15T09:15:00.072Z,4.77
2023-01-15T09:15:40.133Z,4.76
2023-01-15T09:16:41.980Z,4.78
2023-01-15T09:17:43.413Z,4.78
2023-01-15T09:18:44.844Z,4.83
2023-01-15T09:19:46.310Z,4.84
2023-01-15T09:20:48.105Z,4.83
2023-01-15T09:21:49.536Z,4.85
2023-01-15T09:22:51.596Z,4.84
2023-01-15T09:23:52.923Z,4.86
2023-01-15T09:24:54.313Z,4.88
2023-01-15T09:26:01.070Z,4.94
2023-01-15T09:27:02.483Z,4.97
2023-01-15T09:28:04.085Z,4.95
2023-01-15T09:29:07.306Z,4.91
2023-01-15T09:30:14.239Z,4.95
2023-01-15T09:31:15.682Z,4.93
2023-01-15T09:32:17.151Z,4.91
2023-01-15T09:33:18.786Z,4.91
2023-01-15T09:34:20.318Z,4.94
2023-01-15T09:35:24.992Z,5.01
2023-01-15T09:36:29.312Z,5.01
2023-01-15T09:37:30.804Z,5.04
2023-01-15T09:38:34.380Z,5.05
2023-01-15T09:39:37.846Z,5.07
2023-01-15T09:40:57.441Z,5.09
2023-01-15T09:42:08.490Z,5.07
2023-01-15T09:43:24.129Z,5.08
2023-01-15T09:44:32.409Z,5.08
2023-01-15T09:45:36.410Z,5.15
2023-01-15T09:46:48.064Z,5.13
2023-01-15T09:48:11.738Z,5.17
2023-01-15T09:49:55.142Z,5.22
2023-01-15T09:50:59.483Z,5.28
2023-01-15T09:52:19.738Z,5.29
2023-01-15T09:53:24.106Z,5.31
2023-01-15T09:55:03.286Z,5.41
2023-01-15T09:56:05.351Z,5.43
2023-01-15T09:57:11.506Z,5.50
2023-01-15T09:58:16.871Z,5.49
2023-01-15T09:59:40.663Z,5.48
2023-01-15T10:00:52.353Z,5.52
2023-01-15T10:01:54.016Z,5.49
2023-01-15T10:03:06.821Z,5.52
2023-01-15T10:04:26.620Z,5.51
2023-01-15T10:05:35.939Z,5.49
2023-01-15T10:07:08.627Z,5.58
2023-01-15T10:08:15.269Z,5.62
2023-01-15T10:09:31.409Z,5.59
2023-01-15T10:10:52.372Z,5.57
2023-01-15T10:12:20.173Z,5.60
2023-01-15T10:13:35.479Z,5.62
2023-01-15T10:15:08.988Z,5.64
2023-01-15T10:16:13.403Z,5.65
2023-01-15T10:17:28.404Z,5.61
2023-01-15T10:18:30.013Z,5.64
2023-01-15T10:19:43.944Z,5.69
2023-01-15T10:20:54.629Z,5.58
2023-01-15T10:22:10.973Z,5.64
2023-01-15T10:23:32.759Z,5.69
2023-01-15T10:24:50.384Z,5.71
2023-01-15T10:25:58.028Z,5.65
2023-01-15T10:27:00.155Z,5.70
2023-01-15T10:28:13.394Z,5.73
2023-01-15T10:29:21.960Z,5.79
2023-01-15T10:30:47.632Z,5.70
2023-01-15T10:31:53.737Z,5.73
2023-01-15T10:33:03.122Z,5.77
2023-01-15T10:34:43.463Z,5.76
2023-01-15T10:35:53.542Z,5.75
2023-01-15T10:37:09.721Z,5.67
2023-01-15T10:38:19.892Z,5.76
2023-01-15T10:39:33.961Z,5.72
2023-01-15T10:40:35.270Z,5.82
2023-01-15T10:42:08.780Z,5.85
2023-01-15T10:43:19.191Z,5.90
2023-01-15T10:45:01.707Z,5.92
2023-01-15T10:46:14.025Z,5.88
2023-01-15T10:47:19.085Z,5.94
2023-01-15T10:48:32.511Z,5.97
2023-01-15T10:49:34.708Z,5.95
2023-01-15T10:50:36.952Z,5.95
2023-01-15T10:51:47.574Z,5.93
2023-01-15T10:53:17.721Z,6.01
2023-01-15T10:54:19.095Z,5.97
2023-01-15T10:55:32.430Z,6.00
2023-01-15T10:56:52.005Z,5.92
2023-01-15T10:58:10.213Z,5.97
2023-01-15T10:59:30.725Z,5.99
2023-01-15T11:00:32.261Z,6.03
2023-01-15T11:01:34.103Z,6.05
2023-01-15T11:02:43.062Z,6.02
2023-01-15T11:03:44.711Z,5.99
2023-01-15T11:04:46.199Z,6.01
2023-01-15T11:05:47.802Z,6.03
2023-01-15T11:06:49.413Z,6.05
2023-01-15T11:09:24.046Z,6.20
2023-01-15T11:10:25.523Z,6.18
2023-01-15T11:12:01.497Z,6.14
2023-01-15T11:13:36.950Z,6.18
2023-01-15T11:14:59.863Z,6.19
2023-01-15T11:16:20.215Z,6.15
2023-01-15T11:17:42.477Z,6.24
2023-01-15T11:19:04.760Z,6.22
2023-01-15T11:20:34.690Z,6.24
2023-01-15T11:21:42.367Z,6.02
2023-01-15T11:22:45.017Z,6.27
2023-01-15T11:23:47.913Z,6.26
2023-01-15T11:24:51.665Z,6.23
2023-01-15T11:25:56.762Z,6.29
2023-01-15T11:26:58.298Z,6.22
2023-01-15T11:28:02.433Z,6.22
2023-01-15T11:29:15.682Z,6.19
2023-01-15T11:30:39.733Z,6.14
2023-01-15T11:31:41.723Z,6.23
2023-01-15T11:32:43.061Z,6.25
2023-01-15T11:34:06.195Z,6.20
2023-01-15T11:35:10.821Z,6.23
2023-01-15T11:36:22.725Z,6.17
2023-01-15T11:37:24.243Z,6.16
2023-01-15T11:38:31.123Z,6.14
2023-01-15T11:39:33.030Z,6.14
2023-01-15T11:40:34.812Z,6.17
2023-01-15T11:41:54.610Z,6.17
2023-01-15T11:43:14.547Z,6.20
2023-01-15T11:44:36.209Z,6.20
2023-01-15T11:46:10.315Z,6.14
2023-01-15T11:47:36.861Z,6.22
2023-01-15T11:49:05.823Z,6.22
2023-01-15T11:50:38.881Z,6.16
2023-01-15T11:51:48.696Z,6.19
2023-01-15T11:52:55.583Z,6.15
2023-01-15T11:54:04.530Z,6.18
2023-01-15T11:55:17.964Z,6.15
2023-01-15T11:56:24.667Z,6.10
2023-01-15T11:57:30.167Z,6.10
2023-01-15T11:58:46.046Z,6.12
2023-01-15T11:59:50.584Z,5.87
2023-01-15T12:00:55.880Z,6.10
2023-01-15T12:02:03.978Z,6.09
2023-01-15T12:03:12.363Z,6.07
2023-01-15T12:04:30.702Z,6.08
2023-01-15T12:05:35.531Z,6.11
2023-01-15T12:06:40.837Z,6.13
2023-01-15T12:07:42.932Z,6.10
2023-01-15T12:08:53.469Z,6.12
2023-01-15T12:10:13.873Z,6.10
2023-01-15T12:11:33.300Z,6.14
2023-01-15T12:12:51.348Z,6.17
2023-01-15T12:14:15.772Z,6.17
2023-01-15T12:16:07.971Z,6.15
2023-01-15T12:17:12.012Z,6.14
2023-01-15T12:18:29.146Z,6.17
2023-01-15T12:19:52.553Z,6.13
2023-01-15T12:21:05.074Z,6.15
2023-01-15T12:22:06.433Z,6.14
2023-01-15T12:23:26.261Z,6.16
2023-01-15T12:24:52.174Z,6.19
2023-01-15T12:25:59.531Z,6.20
2023-01-15T12:27:27.149Z,6.24
2023-01-15T12:28:33.537Z,6.25
2023-01-15T12:29:43.333Z,6.23
2023-01-15T12:31:05.081Z,6.18
2023-01-15T12:32:19.496Z,6.22
2023-01-15T12:33:37.234Z,6.19
2023-01-15T12:34:50.963Z,6.09
2023-01-15T12:36:06.534Z,6.12
2023-01-15T12:37:20.827Z,5.99
2023-01-15T12:38:39.753Z,6.08
2023-01-15T12:39:50.662Z,6.08
2023-01-15T12:40:56.358Z,6.12
2023-01-15T12:42:20.666Z,6.13
2023-01-15T12:43:44.973Z,6.15
2023-01-15T12:45:09.910Z,6.08
2023-01-15T12:46:22.951Z,6.03
2023-01-15T12:47:37.035Z,6.00
2023-01-15T12:48:43.022Z,6.00
2023-01-15T12:49:53.156Z,6.00
2023-01-15T12:50:59.090Z,5.97
2023-01-15T12:52:08.532Z,5.93
2023-01-15T12:53:19.312Z,5.91
2023-01-15T12:54:31.257Z,6.00
2023-01-15T12:55:40.078Z,5.97
2023-01-15T12:56:41.460Z,5.97
2023-01-15T12:57:47.673Z,6.02
2023-01-15T12:58:52.156Z,6.02
2023-01-15T13:00:07.317Z,5.99
2023-01-15T13:01:21.783Z,5.99
2023-01-15T13:02:54.196Z,5.96
2023-01-15T13:03:55.565Z,6.04
2023-01-15T13:05:27.211Z,6.06
2023-01-15T13:06:29.202Z,6.06
2023-01-15T13:07:43.371Z,6.07
2023-01-15T13:09:11.064Z,6.15
2023-01-15T13:10:17.942Z,6.10
2023-01-15T13:11:19.386Z,6.12
2023-01-15T13:12:20.808Z,6.12
2023-01-15T13:13:25.356Z,6.12
2023-01-15T13:14:26.805Z,6.11
2023-01-15T13:15:37.432Z,6.14
2023-01-15T13:16:51.250Z,6.17
2023-01-15T13:18:09.531Z,6.13
2023-01-15T13:19:23.032Z,6.10
2023-01-15T13:20:42.870Z,6.13
2023-01-15T13:21:48.219Z,6.03
2023-01-15T13:23:07.687Z,6.08
2023-01-15T13:24:33.089Z,6.03
2023-01-15T13:25:56.901Z,6.01
2023-01-15T13:27:23.445Z,5.87
2023-01-15T13:28:51.989Z,5.75
2023-01-15T13:30:14.571Z,5.69
2023-01-15T13:31:31.387Z,5.71
2023-01-15T13:32:39.783Z,5.70
2023-01-15T13:33:46.436Z,5.73
2023-01-15T13:35:05.520Z,5.70
2023-01-15T13:36:30.381Z,5.74
2023-01-15T13:37:36.316Z,5.73
2023-01-15T13:38:45.874Z,5.66
2023-01-15T13:39:49.808Z,5.74
2023-01-15T13:40:55.302Z,5.60
2023-01-15T13:42:15.916Z,5.61
2023-01-15T13:43:41.145Z,5.68
2023-01-15T13:44:50.142Z,5.67
2023-01-15T13:45:51.894Z,5.54
2023-01-15T13:47:26.985Z,5.43
2023-01-15T13:48:34.576Z,5.40
2023-01-15T13:49:48.198Z,5.42
2023-01-15T13:50:55.185Z,5.49
2023-01-15T13:51:59.414Z,5.48
2023-01-15T13:53:12.844Z,5.48
2023-01-15T13:54:18.787Z,5.49
2023-01-15T13:55:36.375Z,5.43
2023-01-15T13:56:39.846Z,5.43
2023-01-15T13:57:42.694Z,5.53
2023-01-15T13:59:01.804Z,5.51
2023-01-15T14:00:29.242Z,5.51
2023-01-15T14:01:30.698Z,5.60
2023-01-15T14:02:36.475Z,5.61
2023-01-15T14:03:38.271Z,5.55
2023-01-15T14:04:39.814Z,5.64
2023-01-15T14:05:41.261Z,5.64
2023-01-15T14:06:44.060Z,5.72
2023-01-15T14:07:45.494Z,5.66
2023-01-15T14:08:46.948Z,5.65
2023-01-15T14:09:48.370Z,5.63
2023-01-15T14:10:49.903Z,5.56
2023-01-15T14:12:15.771Z,5.55
2023-01-15T14:13:23.296Z,5.52
2023-01-15T14:14:52.912Z,5.52
2023-01-15T14:16:06.826Z,5.35
2023-01-15T14:17:14.216Z,5.38
2023-01-15T14:18:57.175Z,5.37
2023-01-15T14:20:33.802Z,5.34
2023-01-15T14:21:53.641Z,5.20
2023-01-15T14:23:12.988Z,5.16
2023-01-15T14:24:46.505Z,5.25
2023-01-15T14:26:06.903Z,5.24
2023-01-15T14:27:44.395Z,5.16
2023-01-15T14:28:54.900Z,5.21
2023-01-15T14:30:23.383Z,5.14
2023-01-15T14:31:50.781Z,5.06
2023-01-15T14:33:29.246Z,5.08
2023-01-15T14:34:33.430Z,5.11
2023-01-15T14:35:45.001Z,5.08
2023-01-15T14:36:54.068Z,5.10
2023-01-15T14:37:59.650Z,5.10
2023-01-15T14:39:03.215Z,5.07
2023-01-15T14:40:06.136Z,5.13
2023-01-15T14:41:07.991Z,5.06
2023-01-15T14:42:57.428Z,5.08
2023-01-15T14:44:02.019Z,4.95
2023-01-15T14:45:12.684Z,4.97
2023-01-15T14:46:19.321Z,4.89
2023-01-15T14:47:31.700Z,4.83
2023-01-15T14:48:39.566Z,4.78
2023-01-15T14:49:49.656Z,4.84
2023-01-15T14:50:52.630Z,4.79
2023-01-15T14:51:54.169Z,4.77
2023-01-15T14:53:07.464Z,4.79
2023-01-15T14:54:13.184Z,4.82
2023-01-15T14:55:16.297Z,4.78
2023-01-15T14:56:23.193Z,4.77
2023-01-15T14:57:25.377Z,4.81
2023-01-15T14:58:32.887Z,4.82
2023-01-15T15:00:00.770Z,4.84